Time;durP1;ratioP1;P1;durP2;ratioP2;P2;SDS_P1;SDS_P2;PMS_P1;PMS_P2;Temp;Humidity;BMP_temperature;BMP_pressure;BME280_temperature;BME280_humidity;BME280_pressure;Samples;Min_cycle;Max_cycle;Signal;HPM_P1;HPM_P2
2021/10/17 00:02:20;;;;;;;21.90;11.20;;;;;;;7.99;67.43;97591.47;4976839;28;20588;-80
2021/10/17 00:04:45;;;;;;;19.42;10.25;;;;;;;8.01;66.85;97598.00;4974184;28;20031;-80
2021/10/17 00:07:10;;;;;;;19.30;10.05;;;;;;;7.95;67.18;97590.28;4974298;28;20034;-81
2021/10/17 00:09:39;;;;;;;18.35;9.70;;;;;;;7.81;67.16;97584.47;4973657;28;20038;-81
2021/10/17 00:12:06;;;;;;;16.23;9.75;;;;;;;7.84;67.25;97579.63;4989595;28;20403;-80
2021/10/17 00:14:32;;;;;;;17.50;8.90;;;;;;;7.86;67.36;97588.00;4957846;28;20346;-80
2021/10/17 00:16:58;;;;;;;17.95;8.55;;;;;;;7.88;67.15;97593.78;4974214;28;20738;-80
2021/10/17 00:19:23;;;;;;;14.57;8.38;;;;;;;7.86;67.60;97588.00;4973603;28;20490;-80
2021/10/17 00:21:48;;;;;;;17.98;8.88;;;;;;;7.80;67.64;97593.28;4982484;28;20088;-81
2021/10/17 00:24:14;;;;;;;12.63;8.05;;;;;;;7.78;67.79;97600.44;4993629;28;20041;-81
2021/10/17 00:26:39;;;;;;;14.60;8.68;;;;;;;7.71;67.90;97589.34;5009524;28;20045;-81
2021/10/17 00:29:06;;;;;;;14.82;8.18;;;;;;;7.67;68.35;97594.97;5009062;28;20041;-81
2021/10/17 00:31:31;;;;;;;15.15;8.25;;;;;;;7.66;68.44;97584.84;4977000;28;20034;-81
2021/10/17 00:33:57;;;;;;;11.80;7.13;;;;;;;7.55;68.20;97590.72;4965339;28;20487;-81
2021/10/17 00:36:24;;;;;;;13.73;7.55;;;;;;;7.50;68.34;97586.16;4993436;28;20108;-81
2021/10/17 00:38:49;;;;;;;11.90;7.60;;;;;;;7.47;68.00;97579.63;4976570;28;20030;-81
2021/10/17 00:41:15;;;;;;;12.82;7.90;;;;;;;7.40;68.55;97578.91;4976181;28;20470;-81
2021/10/17 00:43:40;;;;;;;12.88;7.80;;;;;;;7.39;68.40;97581.72;4989751;28;20033;-81
2021/10/17 00:46:17;;;;;;;12.25;6.80;;;;;;;7.21;68.74;97569.50;4976730;28;20041;-81
2021/10/17 00:48:43;;;;;;;16.88;8.65;;;;;;;7.41;68.71;97575.28;4960123;28;20026;-81
2021/10/17 00:51:09;;;;;;;17.48;9.80;;;;;;;7.32;68.93;97567.00;4989570;28;20409;-80
2021/10/17 00:53:35;;;;;;;16.73;7.72;;;;;;;7.38;68.98;97567.94;4973032;28;20035;-80
2021/10/17 00:56:00;;;;;;;15.07;8.60;;;;;;;7.39;69.35;97574.72;4989818;28;20035;-81
2021/10/17 00:58:25;;;;;;;13.50;8.35;;;;;;;7.41;68.63;97569.31;4957078;28;20047;-80
2021/10/17 01:00:51;;;;;;;14.57;8.88;;;;;;;7.26;69.25;97567.84;4957040;28;20041;-80
2021/10/17 01:03:16;;;;;;;15.35;8.43;;;;;;;7.24;68.93;97564.69;4989029;28;20387;-80
2021/10/17 01:05:42;;;;;;;13.88;7.35;;;;;;;7.23;68.83;97570.88;4973012;28;20034;-80
2021/10/17 01:08:07;;;;;;;13.90;7.50;;;;;;;7.20;68.64;97566.13;4956748;28;20086;-80
2021/10/17 01:10:33;;;;;;;11.02;7.20;;;;;;;7.12;68.44;97564.56;4956722;28;20042;-80
2021/10/17 01:12:58;;;;;;;12.40;6.95;;;;;;;7.10;68.06;97568.41;4972708;28;20036;-80
2021/10/17 01:15:23;;;;;;;11.52;6.60;;;;;;;7.05;68.21;97566.44;4972433;28;20535;-80
2021/10/17 01:17:49;;;;;;;10.43;5.80;;;;;;;6.99;68.54;97567.31;4988268;28;20057;-81
2021/10/17 01:20:14;;;;;;;12.02;6.70;;;;;;;6.99;68.54;97575.06;4990733;28;20041;-81
2021/10/17 01:22:41;;;;;;;13.75;7.43;;;;;;;6.93;68.20;97566.31;4972797;28;20314;-80
2021/10/17 01:25:07;;;;;;;14.68;8.15;;;;;;;6.88;68.42;97563.56;4957042;28;20030;-80
2021/10/17 01:27:32;;;;;;;13.13;7.85;;;;;;;6.83;68.15;97555.66;4972102;28;20519;-80
2021/10/17 01:29:58;;;;;;;11.68;6.50;;;;;;;6.82;68.30;97556.66;4972992;28;20504;-80
2021/10/17 01:32:23;;;;;;;11.88;6.18;;;;;;;6.76;68.42;97547.16;4976891;28;20044;-80
2021/10/17 01:34:49;;;;;;;15.55;6.63;;;;;;;6.77;68.55;97548.75;4969536;28;20041;-80
2021/10/17 01:37:14;;;;;;;15.63;7.78;;;;;;;6.76;69.23;97552.31;4972521;28;20034;-80
2021/10/17 01:39:39;;;;;;;14.00;7.35;;;;;;;6.74;69.27;97552.53;4972459;28;20239;-80
2021/10/17 01:42:05;;;;;;;14.77;8.05;;;;;;;6.70;69.45;97548.78;4981254;28;20030;-80
2021/10/17 01:44:33;;;;;;;12.85;7.55;;;;;;;6.63;69.15;97537.69;4991777;28;20026;-80
2021/10/17 01:46:59;;;;;;;15.32;7.50;;;;;;;6.72;69.26;97549.38;4975718;28;20120;-80
2021/10/17 01:49:24;;;;;;;15.80;8.27;;;;;;;6.70;69.37;97545.38;4973313;28;20034;-80
2021/10/17 01:51:50;;;;;;;15.77;8.32;;;;;;;6.70;69.50;97541.03;5007214;28;20392;-80
2021/10/17 01:54:15;;;;;;;14.48;7.63;;;;;;;6.71;69.91;97544.41;4991896;28;20030;-80
2021/10/17 01:56:41;;;;;;;16.08;8.20;;;;;;;6.74;69.51;97549.16;5007905;28;20221;-80
2021/10/17 01:59:06;;;;;;;16.60;8.75;;;;;;;6.72;69.39;97551.16;4990567;28;20104;-80
2021/10/17 02:01:32;;;;;;;15.23;8.45;;;;;;;6.72;69.34;97544.19;4991607;28;20034;-80
2021/10/17 02:04:01;;;;;;;13.40;8.13;;;;;;;6.63;69.53;97553.22;4974020;28;20025;-80
2021/10/17 02:06:27;;;;;;;11.88;7.00;;;;;;;6.70;69.25;97548.78;4988893;28;20498;-80
2021/10/17 02:08:53;;;;;;;13.65;7.13;;;;;;;6.69;70.23;97552.38;4955732;28;20030;-80
2021/10/17 02:11:18;;;;;;;13.52;7.07;;;;;;;6.69;69.50;97547.19;4956425;28;20304;-80
2021/10/17 02:13:44;;;;;;;14.73;7.88;;;;;;;6.67;70.20;97543.25;4962246;28;20042;-80
2021/10/17 02:16:09;;;;;;;14.10;8.25;;;;;;;6.62;69.89;97543.06;4975634;28;20551;-80
2021/10/17 02:18:34;;;;;;;13.55;7.95;;;;;;;6.60;70.25;97542.47;4991363;28;20033;-80
2021/10/17 02:21:00;;;;;;;12.52;6.78;;;;;;;6.62;69.96;97546.44;5008115;28;20380;-80
2021/10/17 02:23:26;;;;;;;11.02;6.25;;;;;;;6.61;70.01;97541.47;4974621;28;20446;-80
2021/10/17 02:25:51;;;;;;;12.38;6.82;;;;;;;6.64;70.15;97543.66;4991340;28;20063;-80
2021/10/17 02:28:19;;;;;;;10.38;5.80;;;;;;;6.58;70.31;97542.72;4975077;28;20033;-80
2021/10/17 02:30:45;;;;;;;12.82;7.00;;;;;;;6.71;70.71;97539.22;5008003;28;20034;-80
2021/10/17 02:33:11;;;;;;;12.50;6.55;;;;;;;6.81;71.02;97541.34;5007319;28;20033;-80
2021/10/17 02:35:37;;;;;;;13.25;6.43;;;;;;;6.88;70.58;97534.31;5007934;28;20061;-80
2021/10/17 02:38:02;;;;;;;12.35;6.78;;;;;;;6.93;70.01;97530.09;5007892;28;20073;-80
2021/10/17 02:40:27;;;;;;;12.82;6.43;;;;;;;6.97;69.93;97540.81;4991783;28;20030;-80
2021/10/17 02:42:53;;;;;;;12.00;6.53;;;;;;;6.93;69.76;97530.09;5008822;28;20033;-80
2021/10/17 02:45:18;;;;;;;11.55;6.05;;;;;;;6.92;70.14;97525.94;5004873;28;20038;-80
2021/10/17 02:47:43;;;;;;;9.38;5.40;;;;;;;6.93;70.09;97519.72;4974818;28;20026;-80
2021/10/17 02:50:09;;;;;;;10.38;6.40;;;;;;;6.98;70.57;97524.28;4959043;28;20555;-80
2021/10/17 02:52:34;;;;;;;12.60;6.47;;;;;;;7.08;70.93;97523.81;4991249;28;20379;-80
2021/10/17 02:55:00;;;;;;;14.32;6.80;;;;;;;7.15;71.11;97521.16;4991282;28;20048;-80
2021/10/17 02:57:25;;;;;;;12.02;6.40;;;;;;;7.26;71.28;97520.44;4974541;28;20044;-80
2021/10/17 02:59:50;;;;;;;13.85;6.90;;;;;;;7.33;71.02;97521.16;4974508;28;20033;-80
2021/10/17 03:02:16;;;;;;;13.55;7.35;;;;;;;7.43;71.21;97520.69;4991379;28;20022;-80
2021/10/17 03:04:41;;;;;;;14.50;6.90;;;;;;;7.48;71.19;97513.06;4974623;28;20030;-80
2021/10/17 03:07:07;;;;;;;12.73;7.43;;;;;;;7.55;71.20;97518.94;4991728;28;20100;-80
2021/10/17 03:09:32;;;;;;;14.35;7.22;;;;;;;7.61;70.79;97512.91;5007481;28;20030;-80
2021/10/17 03:11:57;;;;;;;18.33;7.68;;;;;;;7.64;71.06;97509.91;5007374;28;20087;-80
2021/10/17 03:14:23;;;;;;;13.05;7.38;;;;;;;7.71;71.45;97514.19;4975071;28;20046;-80
2021/10/17 03:16:48;;;;;;;13.73;6.03;;;;;;;7.74;71.36;97508.59;4990815;28;20033;-80
2021/10/17 03:19:14;;;;;;;13.98;6.90;;;;;;;7.73;70.99;97514.75;4990428;28;20041;-80
2021/10/17 03:21:40;;;;;;;13.85;7.03;;;;;;;7.74;71.14;97501.59;4974414;28;20037;-80
2021/10/17 03:24:05;;;;;;;13.75;7.03;;;;;;;7.77;71.11;97502.97;4990619;28;20036;-80
2021/10/17 03:26:31;;;;;;;11.80;6.53;;;;;;;7.83;70.78;97509.84;4974720;28;20059;-80
2021/10/17 03:28:56;;;;;;;12.60;6.70;;;;;;;7.82;70.64;97503.09;4990284;28;20471;-80
2021/10/17 03:31:22;;;;;;;13.90;7.72;;;;;;;7.80;71.00;97499.94;4990920;28;20052;-80
2021/10/17 03:33:47;;;;;;;11.77;6.70;;;;;;;7.81;70.54;97498.94;4988401;28;20030;-80
2021/10/17 03:36:12;;;;;;;12.93;7.45;;;;;;;7.80;70.68;97502.53;5006620;28;20084;-80
2021/10/17 03:38:38;;;;;;;12.60;6.32;;;;;;;7.82;70.90;97513.47;4989965;28;20034;-80
2021/10/17 03:41:03;;;;;;;14.13;7.30;;;;;;;7.83;70.94;97504.66;5005768;28;20042;-80
2021/10/17 03:43:29;;;;;;;11.60;6.85;;;;;;;7.85;71.24;97505.28;4971156;28;20150;-81
2021/10/17 03:45:54;;;;;;;12.40;6.90;;;;;;;7.85;71.10;97505.28;4988736;28;20045;-80
2021/10/17 03:48:20;;;;;;;13.38;7.30;;;;;;;7.85;71.30;97502.69;4970636;28;20142;-80
2021/10/17 03:50:45;;;;;;;12.23;6.30;;;;;;;7.86;70.94;97509.44;4991574;28;20381;-80
2021/10/17 03:53:10;;;;;;;14.70;7.88;;;;;;;7.82;70.69;97498.72;4974186;28;20124;-80
2021/10/17 03:55:37;;;;;;;13.48;7.97;;;;;;;7.83;71.18;97496.91;4990351;28;20022;-80
2021/10/17 03:58:05;;;;;;;15.40;8.35;;;;;;;7.85;70.96;97497.50;4958440;28;20083;-80
2021/10/17 04:00:30;;;;;;;10.98;6.70;;;;;;;7.88;70.86;97503.03;4990488;28;20112;-80
2021/10/17 04:02:56;;;;;;;14.27;7.75;;;;;;;7.95;70.59;97497.75;4973858;28;20539;-80
2021/10/17 04:05:21;;;;;;;16.40;7.13;;;;;;;7.97;70.32;97503.53;4980851;28;20035;-80
2021/10/17 04:07:47;;;;;;;14.32;6.60;;;;;;;7.94;70.72;97496.16;4954466;28;20037;-80
2021/10/17 04:10:12;;;;;;;11.60;6.88;;;;;;;7.90;70.49;97489.03;4971108;28;20117;-80
2021/10/17 04:12:37;;;;;;;14.45;7.80;;;;;;;7.92;70.68;97498.19;4970824;28;20030;-79
2021/10/17 04:15:03;;;;;;;13.32;7.72;;;;;;;7.89;70.78;97488.25;4954726;28;20068;-80
2021/10/17 04:17:28;;;;;;;12.70;7.07;;;;;;;7.89;70.66;97498.63;4970699;28;20567;-80
2021/10/17 04:19:54;;;;;;;15.60;7.72;;;;;;;7.84;70.19;97501.09;4970140;28;20030;-80
2021/10/17 04:22:20;;;;;;;13.95;7.22;;;;;;;7.82;70.17;97503.88;4970658;28;20057;-80
2021/10/17 04:24:46;;;;;;;13.40;7.00;;;;;;;7.84;70.23;97501.09;4970449;28;20592;-80
2021/10/17 04:27:12;;;;;;;14.13;6.93;;;;;;;7.85;70.02;97497.50;4954462;28;20053;-80
2021/10/17 04:29:37;;;;;;;10.75;6.68;;;;;;;7.79;69.38;97493.94;4970728;28;20053;-80
2021/10/17 04:32:04;;;;;;;12.20;6.55;;;;;;;7.76;69.38;97503.97;4970742;28;22001;-80
2021/10/17 04:34:29;;;;;;;11.93;7.38;;;;;;;7.75;69.96;97505.00;4970202;28;20034;-80
2021/10/17 04:36:55;;;;;;;16.40;6.75;;;;;;;7.78;69.85;97501.94;4988093;28;20475;-80
2021/10/17 04:39:21;;;;;;;11.63;6.15;;;;;;;7.78;70.23;97507.13;4954451;28;20400;-80
2021/10/17 04:41:46;;;;;;;13.30;7.40;;;;;;;7.77;70.48;97508.94;4987774;28;20042;-80
2021/10/17 04:44:12;;;;;;;12.32;6.50;;;;;;;7.77;70.32;97503.75;4970522;28;20035;-80
2021/10/17 04:46:37;;;;;;;12.73;6.72;;;;;;;7.78;70.56;97507.13;4971686;28;20132;-80
2021/10/17 04:49:03;;;;;;;11.52;6.38;;;;;;;7.71;70.21;97502.03;5009779;28;20543;-80
2021/10/17 04:51:28;;;;;;;12.35;7.00;;;;;;;7.74;70.53;97506.78;4993712;28;20029;-80
2021/10/17 04:53:53;;;;;;;14.25;6.80;;;;;;;7.75;70.69;97507.59;4993080;28;20087;-80
2021/10/17 04:56:19;;;;;;;10.70;6.47;;;;;;;7.73;70.46;97500.03;4977215;28;20030;-80
2021/10/17 04:58:45;;;;;;;11.27;6.22;;;;;;;7.75;70.19;97503.19;4992680;28;20116;-80
2021/10/17 05:01:10;;;;;;;12.27;6.93;;;;;;;7.77;69.93;97505.56;5008261;28;20034;-80
2021/10/17 05:03:36;;;;;;;11.43;6.57;;;;;;;7.75;69.95;97517.94;4992234;28;20030;-80
2021/10/17 05:06:01;;;;;;;9.52;5.53;;;;;;;7.73;70.55;97519.94;4972355;28;20030;-80
2021/10/17 05:08:27;;;;;;;13.70;7.10;;;;;;;7.72;70.12;97505.41;4956359;28;20113;-80
2021/10/17 05:10:52;;;;;;;12.95;7.18;;;;;;;7.73;70.37;97513.00;4956771;28;20034;-80
2021/10/17 05:13:18;;;;;;;15.25;8.40;;;;;;;7.74;70.26;97511.19;4990236;28;20114;-80
2021/10/17 05:15:43;;;;;;;16.73;8.88;;;;;;;7.76;70.81;97516.94;4972277;28;20404;-80
2021/10/17 05:18:09;;;;;;;17.50;8.50;;;;;;;7.78;70.47;97512.31;4988527;28;20041;-80
2021/10/17 05:20:34;;;;;;;17.08;7.90;;;;;;;7.82;70.59;97513.47;4988685;28;20077;-80
2021/10/17 05:22:59;;;;;;;16.10;8.65;;;;;;;7.90;71.23;97520.97;4972555;28;20105;-80
2021/10/17 05:25:25;;;;;;;18.25;8.85;;;;;;;7.92;70.92;97508.56;4989755;28;20708;-80
2021/10/17 05:27:50;;;;;;;20.60;9.68;;;;;;;7.96;70.98;97525.25;4988148;28;20030;-80
2021/10/17 05:30:16;;;;;;;16.63;9.07;;;;;;;8.01;71.21;97533.19;4988767;28;20045;-80
2021/10/17 05:32:41;;;;;;;15.25;8.55;;;;;;;8.02;70.97;97523.59;4988227;28;20101;-80
2021/10/17 05:35:07;;;;;;;13.98;8.48;;;;;;;8.02;70.87;97524.41;4973335;28;20026;-80
2021/10/17 05:37:33;;;;;;;13.00;7.65;;;;;;;8.09;70.93;97518.31;4973580;28;20121;-80
2021/10/17 05:39:58;;;;;;;16.67;8.77;;;;;;;8.13;71.13;97530.63;4973145;28;20490;-80
2021/10/17 05:42:23;;;;;;;16.15;8.60;;;;;;;8.14;71.01;97523.63;4990805;28;20065;-80
2021/10/17 05:44:49;;;;;;;14.63;8.13;;;;;;;8.22;71.08;97524.13;4989376;28;20043;-80
2021/10/17 05:47:14;;;;;;;20.45;7.97;;;;;;;8.30;70.87;97530.81;4988909;28;20507;-80
2021/10/17 05:49:39;;;;;;;12.30;6.65;;;;;;;8.27;71.07;97531.25;4973049;28;20499;-80
2021/10/17 05:52:05;;;;;;;11.68;6.72;;;;;;;8.32;70.69;97533.97;4997472;28;20113;-80
2021/10/17 05:54:31;;;;;;;9.77;6.38;;;;;;;8.35;70.40;97533.53;4976274;28;20065;-80
2021/10/17 05:56:56;;;;;;;10.93;6.65;;;;;;;8.38;70.37;97540.88;4976176;28;20037;-80
2021/10/17 05:59:21;;;;;;;13.73;7.45;;;;;;;8.34;70.75;97539.72;4975625;28;20025;-80
2021/10/17 06:01:47;;;;;;;9.38;6.20;;;;;;;8.39;70.16;97539.84;4991993;28;20410;-80
2021/10/17 06:04:12;;;;;;;9.65;6.03;;;;;;;8.39;70.23;97542.44;5010061;28;20041;-80
2021/10/17 06:06:41;;;;;;;11.80;6.43;;;;;;;8.34;69.99;97544.91;5009552;28;20396;-80
2021/10/17 06:09:07;;;;;;;10.98;6.15;;;;;;;8.33;69.81;97543.34;4991768;28;20374;-80
2021/10/17 06:11:33;;;;;;;10.02;5.97;;;;;;;8.37;69.80;97552.25;4992380;28;20041;-80
2021/10/17 06:13:59;;;;;;;9.98;6.05;;;;;;;8.31;69.79;97550.56;5009412;28;20391;-80
2021/10/17 06:16:24;;;;;;;7.88;5.60;;;;;;;8.36;70.14;97557.66;4991985;28;20029;-80
2021/10/17 06:18:49;;;;;;;9.95;5.55;;;;;;;8.48;69.90;97565.53;5008792;28;20109;-80
2021/10/17 06:21:15;;;;;;;9.95;6.75;;;;;;;8.52;69.49;97564.09;4959786;28;20037;-80
2021/10/17 06:23:40;;;;;;;10.80;6.53;;;;;;;8.48;69.50;97573.31;4991793;28;20034;-80
2021/10/17 06:26:05;;;;;;;11.25;6.07;;;;;;;8.42;69.99;97570.59;4975427;28;20037;-80
2021/10/17 06:28:31;;;;;;;11.45;6.85;;;;;;;8.45;69.85;97571.97;4991973;28;20030;-80
2021/10/17 06:30:56;;;;;;;13.57;7.68;;;;;;;8.43;69.61;97577.38;4991489;28;20029;-80
2021/10/17 06:33:22;;;;;;;13.43;7.13;;;;;;;8.44;70.04;97575.56;5006620;28;20065;-80
2021/10/17 06:35:47;;;;;;;12.80;6.47;;;;;;;8.47;70.18;97577.72;4991705;28;20037;-80
2021/10/17 06:38:12;;;;;;;14.05;7.25;;;;;;;8.51;69.94;97580.66;4974672;28;20083;-80
2021/10/17 06:40:38;;;;;;;11.00;6.63;;;;;;;8.53;70.07;97579.41;5009188;28;20041;-80
2021/10/17 06:43:03;;;;;;;11.88;7.47;;;;;;;8.55;70.14;97582.63;4991581;28;20040;-80
2021/10/17 06:45:29;;;;;;;14.85;8.35;;;;;;;8.57;70.16;97582.41;4957097;28;20112;-80
2021/10/17 06:47:54;;;;;;;14.63;8.10;;;;;;;8.59;70.20;97581.16;4990155;28;20076;-80
2021/10/17 06:50:20;;;;;;;16.88;7.78;;;;;;;8.66;70.52;97577.69;4991839;28;20033;-80
2021/10/17 06:52:47;;;;;;;17.80;8.95;;;;;;;8.74;70.93;97585.94;4991507;28;20347;-80
2021/10/17 06:55:13;;;;;;;18.80;9.63;;;;;;;8.84;70.90;97587.19;4991445;28;20033;-80
2021/10/17 06:57:38;;;;;;;21.08;11.07;;;;;;;8.90;70.56;97581.91;4958770;28;20026;-80
2021/10/17 07:00:06;;;;;;;21.98;10.38;;;;;;;8.96;70.64;97586.22;4991039;28;20137;-80
2021/10/17 07:02:31;;;;;;;16.90;8.63;;;;;;;9.03;70.26;97593.91;4975426;28;20040;-80
2021/10/17 07:04:56;;;;;;;16.55;9.43;;;;;;;9.11;70.15;97583.16;5008672;28;20462;-80
2021/10/17 07:07:22;;;;;;;17.23;11.07;;;;;;;9.18;70.05;97596.06;5008986;28;20038;-80
2021/10/17 07:09:47;;;;;;;20.83;11.15;;;;;;;9.18;70.59;97596.88;4974265;28;20044;-80
2021/10/17 07:12:12;;;;;;;17.98;9.98;;;;;;;9.23;70.33;97590.19;4975106;28;20030;-80
2021/10/17 07:14:38;;;;;;;20.17;10.82;;;;;;;9.29;70.47;97599.69;4991178;28;20030;-80
2021/10/17 07:17:03;;;;;;;17.50;9.45;;;;;;;9.41;70.21;97603.09;5008378;28;20068;-79
2021/10/17 07:19:29;;;;;;;20.35;10.30;;;;;;;9.50;69.61;97596.53;5007662;28;20040;-80
2021/10/17 07:21:54;;;;;;;16.85;8.95;;;;;;;9.55;69.56;97603.66;4991136;28;20030;-80
2021/10/17 07:24:19;;;;;;;22.00;11.07;;;;;;;9.59;69.68;97596.19;4958912;28;20495;-80
2021/10/17 07:26:45;;;;;;;17.67;9.20;;;;;;;9.65;69.54;97611.66;4990712;28;20018;-79
2021/10/17 07:29:10;;;;;;;16.85;7.88;;;;;;;9.65;69.48;97609.06;4990860;28;20414;-80
2021/10/17 07:31:35;;;;;;;17.58;7.75;;;;;;;9.70;69.63;97611.00;4975114;28;20053;-80
2021/10/17 07:34:01;;;;;;;24.58;11.43;;;;;;;9.73;70.06;97610.53;4977798;28;20034;-80
2021/10/17 07:36:26;;;;;;;15.93;8.48;;;;;;;9.79;69.83;97609.63;4971727;28;20049;-80
2021/10/17 07:38:52;;;;;;;19.38;10.00;;;;;;;9.82;69.96;97619.56;4970859;28;20073;-80
2021/10/17 07:41:17;;;;;;;17.85;9.15;;;;;;;9.85;69.68;97607.91;4971352;28;20046;-80
2021/10/17 07:43:42;;;;;;;15.52;9.35;;;;;;;9.88;69.12;97603.03;4971518;28;20048;-80
2021/10/17 07:46:08;;;;;;;20.20;11.52;;;;;;;9.89;69.78;97612.44;4987848;28;20026;-80
2021/10/17 07:48:36;;;;;;;16.75;9.32;;;;;;;9.95;69.76;97610.72;4988616;28;20428;-80
2021/10/17 07:51:03;;;;;;;12.45;6.47;;;;;;;10.06;69.11;97603.94;4971613;28;20121;-80
2021/10/17 07:53:29;;;;;;;10.80;6.22;;;;;;;10.08;69.67;97612.28;4972721;28;20087;-80
2021/10/17 07:55:54;;;;;;;14.18;7.55;;;;;;;10.18;69.45;97609.88;4974763;28;20029;-80
2021/10/17 07:58:20;;;;;;;12.77;6.70;;;;;;;10.22;69.08;97610.22;4974269;28;20033;-79
2021/10/17 08:00:45;;;;;;;14.52;6.57;;;;;;;10.23;68.84;97604.78;4974148;28;20121;-80
2021/10/17 08:03:11;;;;;;;13.05;7.30;;;;;;;10.26;69.46;97606.94;4990707;28;20037;-80
2021/10/17 08:05:36;;;;;;;17.00;7.88;;;;;;;10.30;69.23;97610.63;4963480;28;20041;-80
2021/10/17 08:08:02;;;;;;;15.57;7.15;;;;;;;10.35;68.83;97611.78;4971125;28;20026;-79
2021/10/17 08:10:27;;;;;;;11.95;7.28;;;;;;;10.39;68.73;97612.91;4971448;28;20037;-80
2021/10/17 08:12:52;;;;;;;15.68;8.40;;;;;;;10.34;69.09;97611.00;4971144;28;20050;-80
2021/10/17 08:15:18;;;;;;;12.55;6.75;;;;;;;10.36;69.31;97619.34;4955644;28;20150;-80
2021/10/17 08:17:43;;;;;;;13.90;7.85;;;;;;;10.40;69.33;97615.28;5002701;28;20033;-80
2021/10/17 08:20:09;;;;;;;14.38;7.72;;;;;;;10.43;69.17;97606.22;4974983;28;20490;-80
2021/10/17 08:22:35;;;;;;;14.52;7.60;;;;;;;10.53;69.18;97609.00;4994198;28;20052;-80
2021/10/17 08:25:01;;;;;;;15.80;7.72;;;;;;;10.66;68.74;97613.16;5010372;28;20026;-80
2021/10/17 08:27:26;;;;;;;12.57;7.03;;;;;;;10.80;67.82;97606.63;5010063;28;20041;-79
2021/10/17 08:29:51;;;;;;;11.55;6.70;;;;;;;10.82;67.95;97609.75;4993963;28;20029;-80
2021/10/17 08:32:18;;;;;;;9.98;6.68;;;;;;;10.90;68.17;97608.59;5009721;28;20535;-80
2021/10/17 08:34:43;;;;;;;13.02;7.45;;;;;;;11.03;68.38;97610.88;4989828;28;20034;-80
2021/10/17 08:37:08;;;;;;;17.23;9.27;;;;;;;11.10;67.21;97605.53;4993461;28;20030;-80
2021/10/17 08:39:34;;;;;;;10.25;6.45;;;;;;;11.11;66.57;97606.34;4977706;28;20036;-80
2021/10/17 08:41:59;;;;;;;11.00;6.60;;;;;;;11.13;66.98;97604.28;4993758;28;20037;-80
2021/10/17 08:44:25;;;;;;;11.80;7.45;;;;;;;11.09;67.86;97605.75;4993786;28;20355;-80
2021/10/17 08:46:51;;;;;;;11.35;7.35;;;;;;;11.24;67.35;97609.41;4991776;28;20587;-80
2021/10/17 08:49:18;;;;;;;10.55;6.95;;;;;;;11.20;66.38;97597.06;4993614;28;20426;-80
2021/10/17 08:51:44;;;;;;;12.68;6.70;;;;;;;11.42;66.69;97605.75;4993734;28;20399;-80
2021/10/17 08:54:09;;;;;;;12.52;7.53;;;;;;;11.43;67.00;97606.56;5011326;28;20037;-80
2021/10/17 08:56:35;;;;;;;13.18;7.63;;;;;;;11.48;66.27;97608.44;4977412;28;20495;-80
2021/10/17 08:59:00;;;;;;;11.48;6.85;;;;;;;11.68;66.70;97613.94;4993285;28;20040;-80
2021/10/17 09:01:33;;;;;;;12.25;8.00;;;;;;;11.72;66.51;97612.44;4993474;28;20037;-80
2021/10/17 09:03:59;;;;;;;15.38;9.43;;;;;;;11.98;67.02;97612.81;4993895;28;20022;-80
2021/10/17 09:06:27;;;;;;;16.85;10.65;;;;;;;12.15;66.62;97610.91;4993282;28;20112;-80
2021/10/17 09:09:12;;;;;;;12.98;9.00;;;;;;;12.25;65.45;97619.88;4992574;28;20034;-80
2021/10/17 09:11:45;;;;;;;15.35;9.50;;;;;;;12.31;65.94;97605.88;4992384;28;20034;-80
2021/10/17 09:14:22;;;;;;;14.77;10.05;;;;;;;12.33;66.42;97607.19;4973881;28;20120;-80
2021/10/17 09:16:49;;;;;;;12.82;8.45;;;;;;;12.55;65.30;97609.78;4976795;28;20079;-81
2021/10/17 09:19:20;;;;;;;13.80;8.57;;;;;;;12.51;65.09;97613.13;4985315;28;20030;-81
2021/10/17 09:22:07;;;;;;;18.48;10.20;;;;;;;12.51;65.16;97610.53;4993705;28;20495;-81
2021/10/17 09:24:41;;;;;;;16.83;9.82;;;;;;;12.50;65.57;97614.16;4973844;28;20153;-81
2021/10/17 09:27:17;;;;;;;17.13;10.40;;;;;;;12.54;66.24;97616.03;4972834;28;20084;-81
2021/10/17 09:29:52;;;;;;;17.38;9.80;;;;;;;12.65;66.25;97618.75;4973361;28;20061;-81
2021/10/17 09:32:23;;;;;;;19.58;10.60;;;;;;;12.80;65.41;97615.50;4972901;28;20034;-81
2021/10/17 09:34:54;;;;;;;17.13;10.93;;;;;;;12.69;66.27;97610.16;4971644;28;20031;-80
2021/10/17 09:37:21;;;;;;;19.00;10.65;;;;;;;12.81;66.10;97619.69;4973040;28;20146;-80
2021/10/17 09:39:51;;;;;;;21.20;11.70;;;;;;;12.78;66.04;97615.72;4973564;28;20097;-81
2021/10/17 09:42:21;;;;;;;23.40;12.70;;;;;;;12.56;66.93;97613.19;4973893;28;20030;-81
2021/10/17 09:44:47;;;;;;;21.23;12.90;;;;;;;12.66;66.73;97612.47;4973155;28;20384;-81
2021/10/17 09:47:12;;;;;;;18.02;10.80;;;;;;;12.72;66.75;97611.50;4980461;28;20025;-81
2021/10/17 09:49:39;;;;;;;24.60;13.23;;;;;;;12.69;67.01;97614.63;4999553;28;20088;-81
2021/10/17 09:52:24;;;;;;;25.50;14.77;;;;;;;12.52;67.43;97614.69;5002123;28;20034;-81
2021/10/17 09:55:12;;;;;;;22.20;13.90;;;;;;;12.44;67.50;97615.13;4991537;28;20030;-81
2021/10/17 09:57:37;;;;;;;20.77;12.02;;;;;;;12.80;66.76;97618.09;4985021;28;20517;-81
2021/10/17 10:00:07;;;;;;;18.98;12.80;;;;;;;12.78;66.71;97610.50;4999176;28;20030;-81
2021/10/17 10:02:32;;;;;;;16.55;11.40;;;;;;;12.97;66.73;97612.75;4983321;28;20037;-81
2021/10/17 10:04:58;;;;;;;20.58;12.65;;;;;;;13.12;66.00;97607.66;4996930;28;20516;-81
2021/10/17 10:07:25;;;;;;;19.63;11.85;;;;;;;13.15;65.87;97611.63;4981747;28;20038;-81
2021/10/17 10:09:51;;;;;;;18.52;11.07;;;;;;;13.21;65.07;97618.44;4983343;28;20784;-81
2021/10/17 10:12:23;;;;;;;19.50;12.07;;;;;;;13.06;63.97;97612.06;4959370;28;20026;-81
2021/10/17 10:14:49;;;;;;;20.15;11.50;;;;;;;13.24;64.41;97617.94;4965655;28;20038;-81
2021/10/17 10:17:16;;;;;;;15.77;11.02;;;;;;;13.23;64.49;97614.56;4955848;28;20042;-81
2021/10/17 10:19:42;;;;;;;15.32;10.02;;;;;;;13.19;65.09;97615.28;4989943;28;20045;-81
2021/10/17 10:22:07;;;;;;;16.27;10.68;;;;;;;13.36;63.82;97613.34;4977848;28;20492;-81
2021/10/17 10:24:32;;;;;;;17.83;11.32;;;;;;;13.25;64.16;97617.69;4956241;28;20061;-81
2021/10/17 10:26:58;;;;;;;17.40;11.20;;;;;;;13.36;63.78;97617.81;4978675;28;20041;-81
2021/10/17 10:29:33;;;;;;;20.58;11.65;;;;;;;13.23;64.47;97614.56;4972023;28;20042;-81
2021/10/17 10:32:08;;;;;;;17.25;12.07;;;;;;;13.28;64.52;97619.00;4988072;28;20034;-81
2021/10/17 10:34:36;;;;;;;16.75;11.50;;;;;;;13.47;63.82;97622.09;4974042;28;20049;-81
2021/10/17 10:37:16;;;;;;;15.68;9.95;;;;;;;13.33;64.11;97610.47;5008986;28;20534;-81
2021/10/17 10:40:00;;;;;;;16.83;9.57;;;;;;;13.36;64.14;97615.19;4991715;28;20235;-81
2021/10/17 10:42:33;;;;;;;15.32;9.85;;;;;;;13.30;63.56;97617.75;5007237;28;20339;-81
2021/10/17 10:45:25;;;;;;;15.15;9.25;;;;;;;13.10;64.35;97622.81;5007108;28;20123;-81
2021/10/17 10:48:12;;;;;;;13.95;9.38;;;;;;;13.14;64.64;97621.28;4953203;28;20034;-81
2021/10/17 10:50:39;;;;;;;16.45;10.02;;;;;;;13.38;64.12;97628.81;5002533;28;20087;-81
2021/10/17 10:53:05;;;;;;;16.88;10.25;;;;;;;13.32;64.58;97617.53;4990877;28;20030;-81
2021/10/17 10:55:43;;;;;;;15.35;10.73;;;;;;;13.17;63.96;97628.63;4991040;28;20030;-81
2021/10/17 10:58:25;;;;;;;15.73;10.27;;;;;;;13.03;64.28;97627.47;5006812;28;20506;-81
2021/10/17 11:00:52;;;;;;;18.95;11.23;;;;;;;13.26;64.34;97632.38;4974418;28;20503;-81
2021/10/17 11:03:19;;;;;;;18.75;11.77;;;;;;;13.11;63.92;97619.19;4990697;28;20427;-81
2021/10/17 11:06:06;;;;;;;19.70;11.38;;;;;;;12.88;64.68;97631.50;4971113;28;20034;-81
2021/10/17 11:08:33;;;;;;;18.13;12.88;;;;;;;13.00;64.38;97626.13;4980906;28;20104;-81
2021/10/17 11:10:59;;;;;;;16.83;10.38;;;;;;;12.93;64.96;97631.56;4974929;28;20076;-81
2021/10/17 11:13:36;;;;;;;19.90;11.32;;;;;;;12.77;65.62;97626.47;4974749;28;20030;-81
2021/10/17 11:16:04;;;;;;;23.10;11.50;;;;;;;12.90;64.60;97629.47;4991026;28;20026;-81
2021/10/17 11:18:39;;;;;;;21.90;13.00;;;;;;;12.75;65.50;97629.31;4984296;28;20045;-81
2021/10/17 11:21:07;;;;;;;22.05;12.52;;;;;;;12.84;65.05;97630.44;4974194;28;20044;-81
2021/10/17 11:23:35;;;;;;;23.40;13.10;;;;;;;12.85;65.13;97626.78;4990868;28;20029;-81
2021/10/17 11:26:07;;;;;;;22.23;13.10;;;;;;;12.82;65.55;97634.34;4974485;28;20034;-81
2021/10/17 11:28:35;;;;;;;24.10;12.40;;;;;;;12.86;64.72;97630.19;4989969;28;20026;-81